sensor_id;sensor_type;location;lat;lon;timestamp;P1;durP1;ratioP1;P2;durP2;ratioP2
21494;SDS011;10909;53.590;10.054;2023-01-16T00:00:41;3.87;;;2.53;;
21494;SDS011;10909;53.590;10.054;2023-01-16T00:03:09;3.47;;;2.60;;
21494;SDS011;10909;53.590;10.054;2023-01-16T00:05:36;3.37;;;2.80;;
21494;SDS011;10909;53.590;10.054;2023-01-16T00:08:05;3.10;;;2.60;;
21494;SDS011;10909;53.590;10.054;2023-01-16T00:10:31;3.33;;;2.87;;
21494;SDS011;10909;53.590;10.054;2023-01-16T00:12:56;3.00;;;2.70;;
21494;SDS011;10909;53.590;10.054;2023-01-16T00:15:24;2.57;;;2.37;;
21494;SDS011;10909;53.590;10.054;2023-01-16T00:17:53;3.27;;;2.30;;
21494;SDS011;10909;53.590;10.054;2023-01-16T00:20:19;5.20;;;2.77;;
21494;SDS011;10909;53.590;10.054;2023-01-16T00:22:47;3.27;;;2.90;;
21494;SDS011;10909;53.590;10.054;2023-01-16T00:25:18;4.93;;;3.80;;
21494;SDS011;10909;53.590;10.054;2023-01-16T00:27:44;4.60;;;2.83;;
21494;SDS011;10909;53.590;10.054;2023-01-16T00:30:12;3.57;;;3.03;;
21494;SDS011;10909;53.590;10.054;2023-01-16T00:32:41;4.67;;;2.80;;
21494;SDS011;10909;53.590;10.054;2023-01-16T00:35:15;3.57;;;3.00;;
21494;SDS011;10909;53.590;10.054;2023-01-16T00:37:52;3.40;;;2.80;;
21494;SDS011;10909;53.590;10.054;2023-01-16T00:40:25;3.50;;;2.90;;
21494;SDS011;10909;53.590;10.054;2023-01-16T00:43:02;3.57;;;2.70;;
21494;SDS011;10909;53.590;10.054;2023-01-16T00:45:37;5.37;;;2.73;;
21494;SDS011;10909;53.590;10.054;2023-01-16T00:48:05;4.87;;;3.10;;
21494;SDS011;10909;53.590;10.054;2023-01-16T00:50:38;4.77;;;2.80;;
21494;SDS011;10909;53.590;10.054;2023-01-16T00:53:11;4.57;;;2.70;;
21494;SDS011;10909;53.590;10.054;2023-01-16T00:55:43;3.50;;;2.50;;
21494;SDS011;10909;53.590;10.054;2023-01-16T00:58:19;3.03;;;2.70;;
21494;SDS011;10909;53.590;10.054;2023-01-16T01:00:45;3.10;;;2.73;;
21494;SDS011;10909;53.590;10.054;2023-01-16T01:03:11;5.07;;;2.73;;
21494;SDS011;10909;53.590;10.054;2023-01-16T01:05:37;4.07;;;2.30;;
21494;SDS011;10909;53.590;10.054;2023-01-16T01:08:07;3.63;;;2.57;;
21494;SDS011;10909;53.590;10.054;2023-01-16T01:10:36;1.77;;;1.67;;
21494;SDS011;10909;53.590;10.054;2023-01-16T01:13:19;2.23;;;2.03;;
21494;SDS011;10909;53.590;10.054;2023-01-16T01:15:45;2.40;;;2.10;;
21494;SDS011;10909;53.590;10.054;2023-01-16T01:18:10;3.27;;;2.10;;
21494;SDS011;10909;53.590;10.054;2023-01-16T01:20:36;3.30;;;2.60;;
21494;SDS011;10909;53.590;10.054;2023-01-16T01:23:04;5.00;;;2.50;;
21494;SDS011;10909;53.590;10.054;2023-01-16T01:25:32;3.63;;;2.60;;
21494;SDS011;10909;53.590;10.054;2023-01-16T01:27:57;4.30;;;2.43;;
21494;SDS011;10909;53.590;10.054;2023-01-16T01:30:24;6.63;;;3.00;;
21494;SDS011;10909;53.590;10.054;2023-01-16T01:32:50;3.63;;;2.27;;
21494;SDS011;10909;53.590;10.054;2023-01-16T01:35:16;3.93;;;2.67;;
21494;SDS011;10909;53.590;10.054;2023-01-16T01:37:44;3.00;;;2.30;;
21494;SDS011;10909;53.590;10.054;2023-01-16T01:40:10;3.33;;;2.23;;
21494;SDS011;10909;53.590;10.054;2023-01-16T01:42:38;2.73;;;2.30;;
21494;SDS011;10909;53.590;10.054;2023-01-16T01:45:15;5.43;;;2.50;;
21494;SDS011;10909;53.590;10.054;2023-01-16T01:47:47;3.40;;;2.80;;
21494;SDS011;10909;53.590;10.054;2023-01-16T01:50:41;5.17;;;2.50;;
21494;SDS011;10909;53.590;10.054;2023-01-16T01:53:16;3.30;;;2.33;;
21494;SDS011;10909;53.590;10.054;2023-01-16T01:55:54;3.97;;;2.03;;
21494;SDS011;10909;53.590;10.054;2023-01-16T01:58:29;2.73;;;1.90;;
21494;SDS011;10909;53.590;10.054;2023-01-16T02:00:56;3.07;;;1.67;;
21494;SDS011;10909;53.590;10.054;2023-01-16T02:03:27;2.73;;;1.60;;
21494;SDS011;10909;53.590;10.054;2023-01-16T02:06:04;2.70;;;1.50;;
21494;SDS011;10909;53.590;10.054;2023-01-16T02:08:33;2.73;;;1.70;;
21494;SDS011;10909;53.590;10.054;2023-01-16T02:14:02;3.20;;;1.47;;
21494;SDS011;10909;53.590;10.054;2023-01-16T02:16:31;1.67;;;1.27;;
21494;SDS011;10909;53.590;10.054;2023-01-16T02:19:31;2.43;;;1.30;;
21494;SDS011;10909;53.590;10.054;2023-01-16T02:31:19;1.37;;;1.10;;
21494;SDS011;10909;53.590;10.054;2023-01-16T02:40:07;2.40;;;1.20;;
21494;SDS011;10909;53.590;10.054;2023-01-16T02:45:48;1.40;;;1.10;;
21494;SDS011;10909;53.590;10.054;2023-01-16T02:54:31;1.77;;;1.13;;
21494;SDS011;10909;53.590;10.054;2023-01-16T02:57:07;2.67;;;1.10;;
21494;SDS011;10909;53.590;10.054;2023-01-16T02:59:50;1.30;;;0.97;;
21494;SDS011;10909;53.590;10.054;2023-01-16T03:02:18;1.47;;;0.97;;
21494;SDS011;10909;53.590;10.054;2023-01-16T03:04:50;2.30;;;1.30;;
21494;SDS011;10909;53.590;10.054;2023-01-16T03:07:28;2.00;;;1.00;;
21494;SDS011;10909;53.590;10.054;2023-01-16T03:10:22;2.67;;;1.30;;
21494;SDS011;10909;53.590;10.054;2023-01-16T03:33:55;2.67;;;1.20;;
21494;SDS011;10909;53.590;10.054;2023-01-16T03:36:51;1.73;;;0.83;;
21494;SDS011;10909;53.590;10.054;2023-01-16T03:39:24;1.90;;;1.00;;
21494;SDS011;10909;53.590;10.054;2023-01-16T03:41:54;1.80;;;0.90;;
21494;SDS011;10909;53.590;10.054;2023-01-16T03:44:28;2.00;;;1.07;;
21494;SDS011;10909;53.590;10.054;2023-01-16T03:47:10;1.87;;;1.20;;
21494;SDS011;10909;53.590;10.054;2023-01-16T03:49:44;3.60;;;1.30;;
21494;SDS011;10909;53.590;10.054;2023-01-16T03:55:29;1.80;;;1.10;;
21494;SDS011;10909;53.590;10.054;2023-01-16T04:01:13;3.20;;;1.10;;
21494;SDS011;10909;53.590;10.054;2023-01-16T04:03:47;1.07;;;0.80;;
21494;SDS011;10909;53.590;10.054;2023-01-16T04:09:04;2.67;;;0.90;;
21494;SDS011;10909;53.590;10.054;2023-01-16T04:11:38;2.20;;;1.00;;
21494;SDS011;10909;53.590;10.054;2023-01-16T04:14:14;1.63;;;0.90;;
21494;SDS011;10909;53.590;10.054;2023-01-16T04:16:49;2.67;;;1.20;;
21494;SDS011;10909;53.590;10.054;2023-01-16T04:19:32;3.00;;;0.90;;
21494;SDS011;10909;53.590;10.054;2023-01-16T04:22:03;2.03;;;1.20;;
21494;SDS011;10909;53.590;10.054;2023-01-16T04:24:34;1.97;;;1.00;;
21494;SDS011;10909;53.590;10.054;2023-01-16T04:27:02;3.00;;;1.20;;
21494;SDS011;10909;53.590;10.054;2023-01-16T04:29:31;2.73;;;1.10;;
21494;SDS011;10909;53.590;10.054;2023-01-16T04:32:07;1.60;;;1.10;;
21494;SDS011;10909;53.590;10.054;2023-01-16T04:34:37;1.53;;;0.80;;
21494;SDS011;10909;53.590;10.054;2023-01-16T04:37:15;2.37;;;1.10;;
21494;SDS011;10909;53.590;10.054;2023-01-16T04:39:41;1.67;;;1.00;;
21494;SDS011;10909;53.590;10.054;2023-01-16T04:42:12;1.77;;;0.90;;
21494;SDS011;10909;53.590;10.054;2023-01-16T04:44:43;1.43;;;0.90;;
21494;SDS011;10909;53.590;10.054;2023-01-16T04:47:13;1.47;;;0.90;;
21494;SDS011;10909;53.590;10.054;2023-01-16T04:49:47;1.70;;;0.90;;
21494;SDS011;10909;53.590;10.054;2023-01-16T04:52:18;1.50;;;1.10;;
21494;SDS011;10909;53.590;10.054;2023-01-16T04:54:48;1.60;;;0.93;;
21494;SDS011;10909;53.590;10.054;2023-01-16T04:57:15;2.47;;;0.90;;
21494;SDS011;10909;53.590;10.054;2023-01-16T04:59:43;1.73;;;0.97;;
21494;SDS011;10909;53.590;10.054;2023-01-16T05:02:15;1.37;;;0.90;;
21494;SDS011;10909;53.590;10.054;2023-01-16T05:04:46;1.63;;;0.93;;
21494;SDS011;10909;53.590;10.054;2023-01-16T05:07:13;1.87;;;0.90;;
21494;SDS011;10909;53.590;10.054;2023-01-16T05:09:45;2.23;;;1.00;;
21494;SDS011;10909;53.590;10.054;2023-01-16T05:12:13;1.50;;;1.00;;
21494;SDS011;10909;53.590;10.054;2023-01-16T05:14:38;2.17;;;0.83;;
21494;SDS011;10909;53.590;10.054;2023-01-16T05:17:09;1.57;;;0.80;;
21494;SDS011;10909;53.590;10.054;2023-01-16T05:19:40;1.90;;;0.77;;
21494;SDS011;10909;53.590;10.054;2023-01-16T05:22:06;2.47;;;0.80;;
21494;SDS011;10909;53.590;10.054;2023-01-16T05:24:31;1.50;;;0.97;;
21494;SDS011;10909;53.590;10.054;2023-01-16T05:26:59;1.80;;;0.90;;
21494;SDS011;10909;53.590;10.054;2023-01-16T05:29:26;2.13;;;1.00;;
21494;SDS011;10909;53.590;10.054;2023-01-16T05:32:11;1.00;;;0.80;;
21494;SDS011;10909;53.590;10.054;2023-01-16T05:34:38;2.30;;;1.00;;
21494;SDS011;10909;53.590;10.054;2023-01-16T05:37:21;0.97;;;0.87;;
21494;SDS011;10909;53.590;10.054;2023-01-16T05:39:49;0.93;;;0.73;;
21494;SDS011;10909;53.590;10.054;2023-01-16T05:42:19;2.50;;;0.93;;
21494;SDS011;10909;53.590;10.054;2023-01-16T05:44:47;1.63;;;0.90;;
21494;SDS011;10909;53.590;10.054;2023-01-16T05:47:18;1.33;;;0.93;;
21494;SDS011;10909;53.590;10.054;2023-01-16T05:49:49;1.43;;;0.80;;
21494;SDS011;10909;53.590;10.054;2023-01-16T05:52:15;1.73;;;0.87;;
21494;SDS011;10909;53.590;10.054;2023-01-16T05:54:41;2.33;;;1.03;;
21494;SDS011;10909;53.590;10.054;2023-01-16T05:57:07;1.70;;;0.87;;
21494;SDS011;10909;53.590;10.054;2023-01-16T05:59:34;1.40;;;0.70;;
21494;SDS011;10909;53.590;10.054;2023-01-16T06:02:02;1.37;;;0.80;;
21494;SDS011;10909;53.590;10.054;2023-01-16T06:04:34;2.27;;;0.90;;
21494;SDS011;10909;53.590;10.054;2023-01-16T06:07:04;2.23;;;1.00;;
21494;SDS011;10909;53.590;10.054;2023-01-16T06:09:35;1.77;;;0.80;;
21494;SDS011;10909;53.590;10.054;2023-01-16T06:12:13;2.17;;;0.70;;
21494;SDS011;10909;53.590;10.054;2023-01-16T06:14:40;1.50;;;0.80;;
21494;SDS011;10909;53.590;10.054;2023-01-16T06:17:12;1.20;;;0.83;;
21494;SDS011;10909;53.590;10.054;2023-01-16T06:19:40;1.30;;;0.80;;
21494;SDS011;10909;53.590;10.054;2023-01-16T06:22:26;2.40;;;1.10;;
21494;SDS011;10909;53.590;10.054;2023-01-16T06:24:53;3.20;;;1.20;;
21494;SDS011;10909;53.590;10.054;2023-01-16T06:27:31;1.13;;;0.87;;
21494;SDS011;10909;53.590;10.054;2023-01-16T06:29:58;1.53;;;1.00;;
21494;SDS011;10909;53.590;10.054;2023-01-16T06:32:26;1.67;;;1.00;;
21494;SDS011;10909;53.590;10.054;2023-01-16T06:34:52;2.50;;;1.10;;
21494;SDS011;10909;53.590;10.054;2023-01-16T06:37:19;0.90;;;0.80;;
21494;SDS011;10909;53.590;10.054;2023-01-16T06:39:46;2.17;;;0.80;;
21494;SDS011;10909;53.590;10.054;2023-01-16T06:42:14;1.90;;;1.00;;
21494;SDS011;10909;53.590;10.054;2023-01-16T06:44:45;1.10;;;0.80;;
21494;SDS011;10909;53.590;10.054;2023-01-16T06:47:23;1.53;;;0.80;;
21494;SDS011;10909;53.590;10.054;2023-01-16T06:49:53;4.20;;;1.30;;
21494;SDS011;10909;53.590;10.054;2023-01-16T06:52:24;1.80;;;1.20;;
21494;SDS011;10909;53.590;10.054;2023-01-16T06:54:56;1.37;;;0.97;;
21494;SDS011;10909;53.590;10.054;2023-01-16T06:57:27;1.40;;;0.73;;
21494;SDS011;10909;53.590;10.054;2023-01-16T06:59:59;1.90;;;1.03;;
21494;SDS011;10909;53.590;10.054;2023-01-16T07:02:30;1.43;;;1.10;;
21494;SDS011;10909;53.590;10.054;2023-01-16T07:04:57;1.33;;;1.00;;
21494;SDS011;10909;53.590;10.054;2023-01-16T07:07:40;1.60;;;0.90;;
21494;SDS011;10909;53.590;10.054;2023-01-16T07:10:07;1.97;;;1.03;;
21494;SDS011;10909;53.590;10.054;2023-01-16T07:12:44;1.23;;;0.80;;
21494;SDS011;10909;53.590;10.054;2023-01-16T07:15:19;2.17;;;0.90;;
21494;SDS011;10909;53.590;10.054;2023-01-16T07:18:03;0.10;;;0.10;;
21494;SDS011;10909;53.590;10.054;2023-01-16T07:20:53;0.00;;;0.00;;
21494;SDS011;10909;53.590;10.054;2023-01-16T07:23:35;0.00;;;0.00;;
21494;SDS011;10909;53.590;10.054;2023-01-16T07:26:07;0.00;;;0.00;;
21494;SDS011;10909;53.590;10.054;2023-01-16T07:28:46;0.00;;;0.00;;
21494;SDS011;10909;53.590;10.054;2023-01-16T07:31:37;0.00;;;0.00;;
21494;SDS011;10909;53.590;10.054;2023-01-16T07:34:09;0.10;;;0.10;;
21494;SDS011;10909;53.590;10.054;2023-01-16T07:36:46;0.00;;;0.00;;
21494;SDS011;10909;53.590;10.054;2023-01-16T07:39:16;2.77;;;0.70;;
21494;SDS011;10909;53.590;10.054;2023-01-16T07:41:53;1.80;;;0.90;;
21494;SDS011;10909;53.590;10.054;2023-01-16T07:44:20;1.40;;;0.80;;
21494;SDS011;10909;53.590;10.054;2023-01-16T07:46:57;2.83;;;1.17;;
21494;SDS011;10909;53.590;10.054;2023-01-16T07:49:46;2.10;;;1.00;;
21494;SDS011;10909;53.590;10.054;2023-01-16T07:52:13;1.77;;;0.80;;
21494;SDS011;10909;53.590;10.054;2023-01-16T07:54:43;1.77;;;0.80;;
21494;SDS011;10909;53.590;10.054;2023-01-16T07:57:16;1.20;;;0.90;;
21494;SDS011;10909;53.590;10.054;2023-01-16T07:59:47;1.27;;;0.83;;
21494;SDS011;10909;53.590;10.054;2023-01-16T08:02:19;2.27;;;1.00;;
21494;SDS011;10909;53.590;10.054;2023-01-16T08:05:01;1.57;;;0.83;;
21494;SDS011;10909;53.590;10.054;2023-01-16T08:07:31;1.17;;;0.90;;
21494;SDS011;10909;53.590;10.054;2023-01-16T08:09:57;1.23;;;0.80;;
21494;SDS011;10909;53.590;10.054;2023-01-16T08:12:25;1.53;;;1.00;;
21494;SDS011;10909;53.590;10.054;2023-01-16T08:15:00;1.97;;;0.97;;
21494;SDS011;10909;53.590;10.054;2023-01-16T08:17:26;1.13;;;0.80;;
21494;SDS011;10909;53.590;10.054;2023-01-16T08:19:57;2.13;;;1.00;;
21494;SDS011;10909;53.590;10.054;2023-01-16T08:22:31;1.50;;;0.90;;
21494;SDS011;10909;53.590;10.054;2023-01-16T08:25:01;1.10;;;1.00;;
21494;SDS011;10909;53.590;10.054;2023-01-16T08:27:40;1.37;;;0.90;;
21494;SDS011;10909;53.590;10.054;2023-01-16T08:30:15;1.33;;;0.93;;
21494;SDS011;10909;53.590;10.054;2023-01-16T08:32:41;2.70;;;1.17;;
21494;SDS011;10909;53.590;10.054;2023-01-16T08:35:07;1.67;;;1.20;;
21494;SDS011;10909;53.590;10.054;2023-01-16T08:37:43;1.80;;;1.00;;
21494;SDS011;10909;53.590;10.054;2023-01-16T08:40:29;1.73;;;1.00;;
21494;SDS011;10909;53.590;10.054;2023-01-16T08:43:33;1.07;;;0.70;;
21494;SDS011;10909;53.590;10.054;2023-01-16T08:46:20;1.30;;;0.80;;
21494;SDS011;10909;53.590;10.054;2023-01-16T08:49:10;3.43;;;1.10;;
21494;SDS011;10909;53.590;10.054;2023-01-16T08:52:07;1.53;;;0.80;;
21494;SDS011;10909;53.590;10.054;2023-01-16T08:58:04;1.67;;;0.90;;
21494;SDS011;10909;53.590;10.054;2023-01-16T09:00:30;1.67;;;1.00;;
21494;SDS011;10909;53.590;10.054;2023-01-16T09:02:59;2.57;;;1.20;;
21494;SDS011;10909;53.590;10.054;2023-01-16T09:08:52;1.27;;;0.90;;
21494;SDS011;10909;53.590;10.054;2023-01-16T09:18:53;1.83;;;0.87;;
21494;SDS011;10909;53.590;10.054;2023-01-16T09:21:19;2.30;;;1.10;;
21494;SDS011;10909;53.590;10.054;2023-01-16T09:26:35;1.10;;;0.90;;
21494;SDS011;10909;53.590;10.054;2023-01-16T09:29:08;2.40;;;1.00;;
21494;SDS011;10909;53.590;10.054;2023-01-16T09:37:55;1.37;;;1.00;;
21494;SDS011;10909;53.590;10.054;2023-01-16T09:40:39;1.80;;;0.80;;
21494;SDS011;10909;53.590;10.054;2023-01-16T09:46:19;1.07;;;0.80;;
21494;SDS011;10909;53.590;10.054;2023-01-16T09:49:40;2.57;;;1.00;;
21494;SDS011;10909;53.590;10.054;2023-01-16T09:52:16;0.90;;;0.70;;
21494;SDS011;10909;53.590;10.054;2023-01-16T09:55:04;1.70;;;0.80;;
21494;SDS011;10909;53.590;10.054;2023-01-16T09:57:59;1.27;;;0.87;;
21494;SDS011;10909;53.590;10.054;2023-01-16T10:00:44;1.30;;;0.90;;
21494;SDS011;10909;53.590;10.054;2023-01-16T10:03:10;1.73;;;1.00;;
21494;SDS011;10909;53.590;10.054;2023-01-16T10:06:11;0.83;;;0.57;;
21494;SDS011;10909;53.590;10.054;2023-01-16T10:08:42;1.63;;;0.80;;
21494;SDS011;10909;53.590;10.054;2023-01-16T10:27:55;1.73;;;0.90;;
21494;SDS011;10909;53.590;10.054;2023-01-16T10:30:29;1.57;;;0.90;;
21494;SDS011;10909;53.590;10.054;2023-01-16T10:35:47;2.70;;;1.30;;
21494;SDS011;10909;53.590;10.054;2023-01-16T10:40:47;1.33;;;0.77;;
21494;SDS011;10909;53.590;10.054;2023-01-16T10:43:19;2.10;;;1.00;;
21494;SDS011;10909;53.590;10.054;2023-01-16T10:46:14;1.73;;;0.77;;
21494;SDS011;10909;53.590;10.054;2023-01-16T10:49:01;1.60;;;1.00;;
21494;SDS011;10909;53.590;10.054;2023-01-16T10:51:48;2.20;;;0.80;;
21494;SDS011;10909;53.590;10.054;2023-01-16T10:54:14;1.90;;;1.10;;
21494;SDS011;10909;53.590;10.054;2023-01-16T10:56:42;3.37;;;1.03;;
21494;SDS011;10909;53.590;10.054;2023-01-16T10:59:11;2.63;;;1.00;;
21494;SDS011;10909;53.590;10.054;2023-01-16T11:01:42;1.67;;;0.90;;
21494;SDS011;10909;53.590;10.054;2023-01-16T11:04:17;2.03;;;1.00;;
21494;SDS011;10909;53.590;10.054;2023-01-16T11:06:44;1.30;;;0.87;;
21494;SDS011;10909;53.590;10.054;2023-01-16T11:11:39;2.03;;;1.10;;
21494;SDS011;10909;53.590;10.054;2023-01-16T11:14:25;2.93;;;1.23;;
21494;SDS011;10909;53.590;10.054;2023-01-16T11:17:29;0.87;;;0.87;;
21494;SDS011;10909;53.590;10.054;2023-01-16T11:23:24;1.97;;;1.00;;
21494;SDS011;10909;53.590;10.054;2023-01-16T11:26:20;1.43;;;0.90;;
21494;SDS011;10909;53.590;10.054;2023-01-16T11:29:21;0.93;;;0.73;;
21494;SDS011;10909;53.590;10.054;2023-01-16T11:32:17;1.43;;;1.00;;
21494;SDS011;10909;53.590;10.054;2023-01-16T11:35:12;1.57;;;0.80;;
21494;SDS011;10909;53.590;10.054;2023-01-16T11:41:37;1.20;;;1.00;;
21494;SDS011;10909;53.590;10.054;2023-01-16T11:47:43;1.87;;;1.00;;
21494;SDS011;10909;53.590;10.054;2023-01-16T12:03:09;0.80;;;0.80;;
21494;SDS011;10909;53.590;10.054;2023-01-16T12:06:11;1.20;;;0.90;;
21494;SDS011;10909;53.590;10.054;2023-01-16T12:14:49;2.00;;;1.03;;
21494;SDS011;10909;53.590;10.054;2023-01-16T12:20:30;1.20;;;1.00;;
21494;SDS011;10909;53.590;10.054;2023-01-16T12:37:28;1.87;;;0.90;;
21494;SDS011;10909;53.590;10.054;2023-01-16T12:51:05;0.90;;;0.80;;
21494;SDS011;10909;53.590;10.054;2023-01-16T12:56:17;0.80;;;0.80;;
21494;SDS011;10909;53.590;10.054;2023-01-16T12:59:23;1.13;;;1.00;;
21494;SDS011;10909;53.590;10.054;2023-01-16T13:02:01;2.40;;;1.53;;
21494;SDS011;10909;53.590;10.054;2023-01-16T13:04:43;1.53;;;1.33;;
21494;SDS011;10909;53.590;10.054;2023-01-16T13:07:43;1.63;;;1.20;;
21494;SDS011;10909;53.590;10.054;2023-01-16T13:10:38;1.63;;;1.00;;
21494;SDS011;10909;53.590;10.054;2023-01-16T13:13:31;1.13;;;0.90;;
21494;SDS011;10909;53.590;10.054;2023-01-16T13:16:05;2.10;;;1.30;;
21494;SDS011;10909;53.590;10.054;2023-01-16T13:18:42;3.30;;;1.40;;
21494;SDS011;10909;53.590;10.054;2023-01-16T13:21:26;1.70;;;0.93;;
21494;SDS011;10909;53.590;10.054;2023-01-16T13:26:23;1.30;;;0.90;;
21494;SDS011;10909;53.590;10.054;2023-01-16T13:39:44;1.13;;;0.80;;
21494;SDS011;10909;53.590;10.054;2023-01-16T13:42:28;1.00;;;0.80;;
21494;SDS011;10909;53.590;10.054;2023-01-16T13:45:03;2.53;;;1.10;;
21494;SDS011;10909;53.590;10.054;2023-01-16T13:48:02;0.70;;;0.70;;
21494;SDS011;10909;53.590;10.054;2023-01-16T13:50:35;1.40;;;1.00;;
21494;SDS011;10909;53.590;10.054;2023-01-16T13:53:02;1.20;;;0.90;;
21494;SDS011;10909;53.590;10.054;2023-01-16T13:55:37;1.80;;;1.00;;
21494;SDS011;10909;53.590;10.054;2023-01-16T13:58:21;0.97;;;0.80;;
21494;SDS011;10909;53.590;10.054;2023-01-16T14:00:57;1.00;;;0.80;;
21494;SDS011;10909;53.590;10.054;2023-01-16T14:03:31;1.20;;;0.70;;
21494;SDS011;10909;53.590;10.054;2023-01-16T14:08:51;1.80;;;0.83;;
21494;SDS011;10909;53.590;10.054;2023-01-16T14:14:19;1.93;;;1.20;;
21494;SDS011;10909;53.590;10.054;2023-01-16T14:17:21;1.10;;;0.80;;
21494;SDS011;10909;53.590;10.054;2023-01-16T14:22:24;1.47;;;0.80;;
21494;SDS011;10909;53.590;10.054;2023-01-16T14:24:57;1.60;;;1.00;;
21494;SDS011;10909;53.590;10.054;2023-01-16T14:27:34;3.60;;;1.10;;
21494;SDS011;10909;53.590;10.054;2023-01-16T14:30:16;2.80;;;1.10;;
21494;SDS011;10909;53.590;10.054;2023-01-16T14:35:55;1.10;;;0.90;;
21494;SDS011;10909;53.590;10.054;2023-01-16T14:38:24;1.80;;;1.00;;
21494;SDS011;10909;53.590;10.054;2023-01-16T14:40:58;1.20;;;0.90;;
21494;SDS011;10909;53.590;10.054;2023-01-16T14:47:22;2.43;;;1.00;;
21494;SDS011;10909;53.590;10.054;2023-01-16T14:50:15;1.73;;;1.20;;
21494;SDS011;10909;53.590;10.054;2023-01-16T14:55:57;1.00;;;0.70;;
21494;SDS011;10909;53.590;10.054;2023-01-16T15:01:19;1.43;;;0.80;;
21494;SDS011;10909;53.590;10.054;2023-01-16T15:04:12;1.33;;;0.87;;
21494;SDS011;10909;53.590;10.054;2023-01-16T15:06:42;1.37;;;1.07;;
21494;SDS011;10909;53.590;10.054;2023-01-16T15:09:14;2.33;;;1.10;;
21494;SDS011;10909;53.590;10.054;2023-01-16T15:12:02;2.97;;;1.23;;
21494;SDS011;10909;53.590;10.054;2023-01-16T15:14:50;2.60;;;1.00;;
21494;SDS011;10909;53.590;10.054;2023-01-16T15:17:22;2.03;;;1.07;;
21494;SDS011;10909;53.590;10.054;2023-01-16T15:23:03;2.13;;;0.90;;
21494;SDS011;10909;53.590;10.054;2023-01-16T15:31:29;1.87;;;1.00;;
21494;SDS011;10909;53.590;10.054;2023-01-16T15:34:03;1.30;;;1.00;;
21494;SDS011;10909;53.590;10.054;2023-01-16T15:36:40;2.80;;;0.83;;
21494;SDS011;10909;53.590;10.054;2023-01-16T15:41:42;2.53;;;0.90;;
21494;SDS011;10909;53.590;10.054;2023-01-16T15:44:36;1.00;;;0.90;;
21494;SDS011;10909;53.590;10.054;2023-01-16T15:47:26;1.40;;;1.00;;
21494;SDS011;10909;53.590;10.054;2023-01-16T15:50:16;2.40;;;1.00;;
21494;SDS011;10909;53.590;10.054;2023-01-16T15:52:54;3.63;;;1.13;;
21494;SDS011;10909;53.590;10.054;2023-01-16T15:55:20;2.50;;;1.10;;
21494;SDS011;10909;53.590;10.054;2023-01-16T15:57:53;2.17;;;0.90;;
21494;SDS011;10909;53.590;10.054;2023-01-16T16:00:23;2.23;;;1.00;;
21494;SDS011;10909;53.590;10.054;2023-01-16T16:02:52;3.17;;;1.00;;
21494;SDS011;10909;53.590;10.054;2023-01-16T16:05:22;2.10;;;0.97;;
21494;SDS011;10909;53.590;10.054;2023-01-16T16:07:49;2.00;;;1.03;;
21494;SDS011;10909;53.590;10.054;2023-01-16T16:10:15;1.50;;;1.00;;
21494;SDS011;10909;53.590;10.054;2023-01-16T16:13:03;1.80;;;1.00;;
21494;SDS011;10909;53.590;10.054;2023-01-16T16:15:30;3.23;;;1.00;;
21494;SDS011;10909;53.590;10.054;2023-01-16T16:18:15;1.93;;;1.10;;
21494;SDS011;10909;53.590;10.054;2023-01-16T16:20:44;2.23;;;1.00;;
21494;SDS011;10909;53.590;10.054;2023-01-16T16:23:23;1.60;;;0.80;;
21494;SDS011;10909;53.590;10.054;2023-01-16T16:25:56;1.43;;;0.80;;
21494;SDS011;10909;53.590;10.054;2023-01-16T16:31:00;1.40;;;0.90;;
21494;SDS011;10909;53.590;10.054;2023-01-16T16:33:30;2.70;;;1.00;;
21494;SDS011;10909;53.590;10.054;2023-01-16T16:36:01;1.33;;;1.00;;
21494;SDS011;10909;53.590;10.054;2023-01-16T16:38:31;1.23;;;0.87;;
21494;SDS011;10909;53.590;10.054;2023-01-16T16:43:42;1.43;;;1.00;;
21494;SDS011;10909;53.590;10.054;2023-01-16T16:48:58;1.70;;;1.00;;
21494;SDS011;10909;53.590;10.054;2023-01-16T16:51:49;1.83;;;1.10;;
21494;SDS011;10909;53.590;10.054;2023-01-16T16:54:16;1.30;;;1.10;;
21494;SDS011;10909;53.590;10.054;2023-01-16T16:56:47;1.23;;;0.97;;
21494;SDS011;10909;53.590;10.054;2023-01-16T16:59:19;1.03;;;0.90;;
21494;SDS011;10909;53.590;10.054;2023-01-16T17:01:51;1.27;;;1.00;;
21494;SDS011;10909;53.590;10.054;2023-01-16T17:04:33;1.40;;;0.83;;
21494;SDS011;10909;53.590;10.054;2023-01-16T17:07:01;2.53;;;1.20;;
21494;SDS011;10909;53.590;10.054;2023-01-16T17:09:40;1.83;;;1.10;;
21494;SDS011;10909;53.590;10.054;2023-01-16T17:12:12;1.90;;;1.10;;
21494;SDS011;10909;53.590;10.054;2023-01-16T17:14:41;2.53;;;1.20;;
21494;SDS011;10909;53.590;10.054;2023-01-16T17:17:10;2.20;;;1.00;;
21494;SDS011;10909;53.590;10.054;2023-01-16T17:19:42;1.50;;;0.90;;
21494;SDS011;10909;53.590;10.054;2023-01-16T17:22:10;2.43;;;1.27;;
21494;SDS011;10909;53.590;10.054;2023-01-16T17:24:38;1.60;;;1.10;;
21494;SDS011;10909;53.590;10.054;2023-01-16T17:27:08;1.10;;;0.73;;
21494;SDS011;10909;53.590;10.054;2023-01-16T17:29:36;1.70;;;1.23;;
21494;SDS011;10909;53.590;10.054;2023-01-16T17:32:11;2.20;;;1.40;;
21494;SDS011;10909;53.590;10.054;2023-01-16T17:35:12;1.67;;;1.00;;
21494;SDS011;10909;53.590;10.054;2023-01-16T17:37:46;1.83;;;1.10;;
21494;SDS011;10909;53.590;10.054;2023-01-16T17:40:19;1.30;;;1.10;;
21494;SDS011;10909;53.590;10.054;2023-01-16T17:42:45;1.73;;;1.20;;
21494;SDS011;10909;53.590;10.054;2023-01-16T17:45:35;1.20;;;1.00;;
21494;SDS011;10909;53.590;10.054;2023-01-16T17:48:21;1.53;;;0.97;;
21494;SDS011;10909;53.590;10.054;2023-01-16T17:50:50;1.37;;;1.10;;
21494;SDS011;10909;53.590;10.054;2023-01-16T17:53:18;4.83;;;1.07;;
21494;SDS011;10909;53.590;10.054;2023-01-16T17:55:48;1.50;;;1.10;;
21494;SDS011;10909;53.590;10.054;2023-01-16T17:58:18;1.80;;;1.00;;
21494;SDS011;10909;53.590;10.054;2023-01-16T18:00:49;1.33;;;1.23;;
21494;SDS011;10909;53.590;10.054;2023-01-16T18:03:21;2.40;;;1.10;;
21494;SDS011;10909;53.590;10.054;2023-01-16T18:05:49;1.53;;;1.20;;
21494;SDS011;10909;53.590;10.054;2023-01-16T18:08:15;1.63;;;0.90;;
21494;SDS011;10909;53.590;10.054;2023-01-16T18:10:40;2.53;;;1.10;;
21494;SDS011;10909;53.590;10.054;2023-01-16T18:13:08;3.17;;;0.87;;
21494;SDS011;10909;53.590;10.054;2023-01-16T18:15:53;1.43;;;1.00;;
21494;SDS011;10909;53.590;10.054;2023-01-16T18:18:37;1.77;;;1.03;;
21494;SDS011;10909;53.590;10.054;2023-01-16T18:21:10;2.03;;;0.90;;
21494;SDS011;10909;53.590;10.054;2023-01-16T18:23:55;1.00;;;0.90;;
21494;SDS011;10909;53.590;10.054;2023-01-16T18:26:21;0.90;;;0.83;;
21494;SDS011;10909;53.590;10.054;2023-01-16T18:28:48;2.10;;;1.00;;
21494;SDS011;10909;53.590;10.054;2023-01-16T18:31:15;1.90;;;1.07;;
21494;SDS011;10909;53.590;10.054;2023-01-16T18:33:42;1.83;;;1.00;;
21494;SDS011;10909;53.590;10.054;2023-01-16T18:36:08;1.30;;;1.10;;
21494;SDS011;10909;53.590;10.054;2023-01-16T18:38:34;1.43;;;1.00;;
21494;SDS011;10909;53.590;10.054;2023-01-16T18:41:19;1.60;;;0.90;;
21494;SDS011;10909;53.590;10.054;2023-01-16T18:44:06;1.53;;;1.00;;
21494;SDS011;10909;53.590;10.054;2023-01-16T18:46:53;1.20;;;1.10;;
21494;SDS011;10909;53.590;10.054;2023-01-16T18:49:39;1.00;;;0.90;;
21494;SDS011;10909;53.590;10.054;2023-01-16T18:52:24;1.67;;;1.10;;
21494;SDS011;10909;53.590;10.054;2023-01-16T18:55:13;2.17;;;1.10;;
21494;SDS011;10909;53.590;10.054;2023-01-16T18:57:59;1.00;;;0.90;;
21494;SDS011;10909;53.590;10.054;2023-01-16T19:00:44;0.83;;;0.80;;